Weather History for Spartanburg, SC

Change the Weather History Date:

Saturday, May 25, 2013

  Actual Average (KGSP) Record (KGSP)
Temperature  
Mean Temperature 62 °F 71 °F  
Max Temperature 78 °F 83 °F 96 °F (1962)
Min Temperature 46 °F 60 °F 46 °F (2005)
Degree Days  
Heating Degree Days 3 1  
Month to date heating degree days 38  
Since 1 July heating degree days 3044  
Cooling Degree Days 0 7  
Month to date cooling degree days 108  
Year to date cooling degree days 156  
Growing Degree Days 12 (Base 50)    
Moisture  
Dew Point 44 °F    
Average Humidity 51    
Maximum Humidity 93    
Minimum Humidity 28    
Precipitation  
Precipitation 0.00 in 0.12 in 1.51 in (1951)
Month to date precipitation 3.02  
Year to date precipitation 18.69  
Snow  
Snow 0.00 in 0.00 in 0.00 in ()
Month to date snowfall 0.0  
Since 1 July snowfall 4.7  
Snow Depth -    
Sea Level Pressure  
Sea Level Pressure 30.23 in    
Wind  
Wind Speed 4 mph (West)    
Max Wind Speed 12 mph    
Max Gust Speed 18 mph    
Visibility 10 miles    
Events      
T = Trace of Precipitation, MM = Missing Value Source: NWS Daily Summary

Daily Weather History Graph

Daily Weather History Graph

Search for Another Location

Airport:

Trip Planner

Search our weather history database for the weather conditions in past years. The results will help you decide how hot, cold, wet, or windy it might be!

Date:

Astronomy

May. 25, 2013 Rise Set
Actual Time 6:18 AM EDT 8:31 PM EDT
Civil Twilight 5:49 AM EDT 9:00 PM EDT
Nautical Twilight 5:14 AM EDT 9:35 PM EDT
Astronomical Twilight 4:35 AM EDT 10:14 PM EDT
Moon 9:19 PM EDT (5/25) 6:42 AM EDT (5/25)
Length of Visible Light 15h 11m
Length of Day
14h 13m
Full, 100% of the Moon is Illuminated
May 25
Full
May 31
Last Quarter
Jun 8
New
Jun 16
First Quarter
Jun 23
Full

Hourly Weather History & Observations

Time (EDT) Temp. Dew Point Humidity Pressure Visibility Wind Dir Wind Speed Gust Speed Precip Events Conditions
12:15 AM 55.4 °F 46.4 °F 72% 30.22 in 10.0 mi Calm Calm - N/A   Clear
12:35 AM 51.8 °F 46.4 °F 82% 30.22 in 10.0 mi West 4.6 mph - N/A   Clear
12:55 AM 59.0 °F 42.8 °F 55% 30.22 in 10.0 mi Calm Calm - N/A   Clear
1:15 AM 53.6 °F 44.6 °F 72% 30.22 in 10.0 mi NNW 5.8 mph - N/A   Clear
1:35 AM 53.6 °F 44.6 °F 72% 30.22 in 10.0 mi NNE 4.6 mph - N/A   Clear
1:55 AM 55.4 °F 44.6 °F 67% 30.22 in 10.0 mi Calm Calm - N/A   Clear
2:15 AM 55.4 °F 42.8 °F 63% 30.22 in 10.0 mi NNW 5.8 mph - N/A   Clear
2:35 AM 53.6 °F 44.6 °F 72% 30.22 in 10.0 mi NNW 3.5 mph - N/A   Clear
2:55 AM 55.4 °F 41.0 °F 58% 30.22 in 10.0 mi North 5.8 mph - N/A   Clear
3:15 AM 53.6 °F 42.8 °F 67% 30.22 in 10.0 mi NNE 4.6 mph - N/A   Clear
3:35 AM 53.6 °F 42.8 °F 67% 30.22 in 10.0 mi Calm Calm - N/A   Clear
3:55 AM 50.0 °F 44.6 °F 82% 30.23 in 10.0 mi Calm Calm - N/A   Clear
4:15 AM 50.0 °F 44.6 °F 82% 30.23 in 10.0 mi Calm Calm - N/A   Clear
4:35 AM 50.0 °F 44.6 °F 82% 30.23 in 10.0 mi Calm Calm - N/A   Clear
4:55 AM 51.8 °F 42.8 °F 71% 30.23 in 10.0 mi Calm Calm - N/A   Clear
5:15 AM 51.8 °F 41.0 °F 67% 30.24 in 10.0 mi North 3.5 mph - N/A   Clear
5:35 AM 51.8 °F 41.0 °F 67% 30.24 in 10.0 mi North 4.6 mph - N/A   Clear
5:55 AM 48.2 °F 42.8 °F 82% 30.24 in 10.0 mi Calm Calm - N/A   Clear
6:15 AM 46.4 °F 42.8 °F 87% 30.25 in 10.0 mi Calm Calm - N/A   Clear
6:35 AM 46.4 °F 42.8 °F 87% 30.26 in 10.0 mi Calm Calm - N/A   Clear
6:55 AM 46.4 °F 42.8 °F 87% 30.27 in 10.0 mi Calm Calm - N/A   Clear
7:15 AM 46.4 °F 44.6 °F 93% 30.27 in 10.0 mi Calm Calm - N/A   Clear
7:35 AM 50.0 °F 46.4 °F 87% 30.29 in 10.0 mi Calm Calm - N/A   Clear
7:55 AM 55.4 °F 44.6 °F 67% 30.29 in 10.0 mi NNW 4.6 mph - N/A   Clear
8:15 AM 59.0 °F 42.8 °F 55% 30.30 in 10.0 mi NNW 3.5 mph - N/A   Clear
8:35 AM 60.8 °F 42.8 °F 52% 30.30 in 10.0 mi North 10.4 mph - N/A   Clear
8:55 AM 60.8 °F 42.8 °F 52% 30.30 in 10.0 mi North 9.2 mph - N/A   Clear
9:15 AM 62.6 °F 42.8 °F 48% 30.30 in 10.0 mi North 10.4 mph - N/A   Clear
9:35 AM 62.6 °F 41.0 °F 45% 30.31 in 10.0 mi North 10.4 mph - N/A   Clear
9:55 AM 64.4 °F 42.8 °F 45% 30.31 in 10.0 mi North 8.1 mph - N/A   Clear
10:15 AM 64.4 °F 42.8 °F 45% 30.32 in 10.0 mi NW 4.6 mph - N/A   Clear
10:35 AM 66.2 °F 41.0 °F 40% 30.31 in 10.0 mi NW 3.5 mph - N/A   Clear
10:55 AM 64.4 °F 41.0 °F 42% 30.31 in 10.0 mi NE 3.5 mph - N/A   Clear
11:15 AM 68.0 °F 41.0 °F 37% 30.31 in 10.0 mi Calm Calm - N/A   Clear
11:35 AM 68.0 °F 41.0 °F 37% 30.30 in 10.0 mi Calm Calm - N/A   Clear
11:55 AM 69.8 °F 41.0 °F 35% 30.30 in 10.0 mi SW 3.5 mph - N/A   Clear
12:15 PM 71.6 °F 39.2 °F 31% 30.30 in 10.0 mi SSW 4.6 mph - N/A   Clear
12:35 PM 71.6 °F 37.4 °F 29% 30.30 in 10.0 mi Calm Calm - N/A   Clear
12:55 PM 71.6 °F 41.0 °F 33% 30.29 in 10.0 mi SW 5.8 mph - N/A   Clear
1:15 PM 71.6 °F 41.0 °F 33% 30.27 in 10.0 mi Calm Calm - N/A   Clear
1:35 PM 73.4 °F 42.8 °F 33% 30.26 in 10.0 mi West 6.9 mph - N/A   Clear
1:55 PM 73.4 °F 42.8 °F 33% 30.25 in 10.0 mi West 6.9 mph - N/A   Clear
2:15 PM 75.2 °F 42.8 °F 31% 30.24 in 10.0 mi WSW 8.1 mph - N/A   Clear
2:35 PM 75.2 °F 41.0 °F 29% 30.23 in 10.0 mi SSE 3.5 mph - N/A   Clear
2:55 PM 77.0 °F 41.0 °F 28% 30.23 in 10.0 mi West 6.9 mph - N/A   Clear
3:15 PM 77.0 °F 42.8 °F 29% 30.21 in 10.0 mi SW 5.8 mph - N/A   Clear
3:35 PM 77.0 °F 42.8 °F 29% 30.21 in 10.0 mi SSW 8.1 mph - N/A   Clear
3:55 PM 77.0 °F 42.8 °F 29% 30.20 in 10.0 mi SW 11.5 mph 18.4 mph N/A   Clear
4:15 PM 77.0 °F 42.8 °F 29% 30.20 in 10.0 mi SW 11.5 mph - N/A   Clear
4:35 PM 77.0 °F 42.8 °F 29% 30.20 in 10.0 mi SW 6.9 mph - N/A   Clear
4:55 PM 78.8 °F 42.8 °F 28% 30.19 in 10.0 mi WSW 8.1 mph - N/A   Clear
5:15 PM 78.8 °F 42.8 °F 28% 30.19 in 10.0 mi WSW 6.9 mph - N/A   Clear
5:35 PM 77.0 °F 42.8 °F 29% 30.18 in 10.0 mi SW 6.9 mph - N/A   Clear
5:55 PM 78.8 °F 44.6 °F 30% 30.18 in 10.0 mi SW 8.1 mph - N/A   Clear
6:15 PM 77.0 °F 44.6 °F 32% 30.18 in 10.0 mi SW 5.8 mph - N/A   Clear
6:35 PM 77.0 °F 46.4 °F 34% 30.18 in 10.0 mi SW 5.8 mph - N/A   Clear
6:55 PM 77.0 °F 44.6 °F 32% 30.18 in 10.0 mi WSW 8.1 mph - N/A   Clear
7:15 PM 75.2 °F 44.6 °F 34% 30.17 in 10.0 mi SW 9.2 mph - N/A   Clear
7:35 PM 75.2 °F 46.4 °F 36% 30.17 in 10.0 mi WSW 5.8 mph - N/A   Clear
7:55 PM 73.4 °F 46.4 °F 38% 30.18 in 10.0 mi WSW 5.8 mph - N/A   Clear
8:15 PM 71.6 °F 48.2 °F 43% 30.18 in 10.0 mi SW 5.8 mph - N/A   Clear
8:35 PM 71.6 °F 50.0 °F 46% 30.18 in 10.0 mi SW 4.6 mph - N/A   Clear
8:55 PM 69.8 °F 50.0 °F 49% 30.18 in 10.0 mi SW 3.5 mph - N/A   Clear
9:15 PM 68.0 °F 50.0 °F 52% 30.19 in 10.0 mi Calm Calm - N/A   Clear
9:35 PM 66.2 °F 50.0 °F 56% 30.19 in 10.0 mi WSW 4.6 mph - N/A   Clear
9:55 PM 64.4 °F 51.8 °F 64% 30.20 in 10.0 mi West 4.6 mph - N/A   Clear
10:15 PM 66.2 °F 50.0 °F 56% 30.20 in 10.0 mi WNW 4.6 mph - N/A   Clear
10:35 PM 68.0 °F 44.6 °F 43% 30.20 in 10.0 mi WNW 5.8 mph - N/A   Clear
10:55 PM 68.0 °F 42.8 °F 40% 30.20 in 10.0 mi NW 5.8 mph - N/A   Clear
11:15 PM 68.0 °F 41.0 °F 37% 30.20 in 10.0 mi NW 4.6 mph - N/A   Clear
11:35 PM 64.4 °F 44.6 °F 49% 30.19 in 10.0 mi Calm Calm - N/A   Clear
11:55 PM 60.8 °F 50.0 °F 68% 30.18 in 10.0 mi Calm Calm - N/A   Clear